Bemidji Regional Airport
KBJI : now visible

Airfield :











YOU CAN JOIN US ON...

 
LOGIN :

Register | Disclaimer

   EN    FR    IT 

 









Legend :    VFR   Marginal VFR   IFR   Intensive IFR   Very Intensive IFR
Visi :
Ceiling :
>= 8 km
>= 3000ft
5 to 8 km
1000 to 3000 ft
1500m to 5 km
500 to 1000 ft
800 to 1500m
200 to 500 ft
< 800m
< 200 ft
Symbols :   Thunderstorms  Fog  Heavy snow  Heavy precipitations  Wind > 20 kt






- Airport Elevation : 1391 ft


KBJI - Bemidji Regional

CURRENT METAR :
  • 141637Z AUTO 22007KT 10SM OVC050 M06/M11 A3005 RMK AO2 T10611110

EXPIRED METARs :
  • 141619Z AUTO 22008KT 10SM OVC050 M07/M11 A3005 RMK AO2 T10711114
  • 141615Z AUTO 22007KT 10SM OVC050 M07/M11 A3005 RMK AO2 T10731114
  • 141435Z AUTO 21005KT 10SM CLR M12/M15 A3006 RMK AO2 T11251147
  • 141416Z AUTO 20004KT 10SM CLR M13/M15 A3007 RMK AO2 T11301150
  • 141355Z AUTO 21005KT 10SM CLR M14/M16 A3009 RMK AO2 T11381156

TAF KBJI
Valid from the 14 at 16:00 until the 15 at 12:00 UTC


141533Z 1416/1512 23010KT P6SM OVC060
FM141800 24011KT P6SM BKN018
FM142200 26010G18KT P6SM OVC008
FM150200 31006KT P6SM BKN011
FM151000 VRB04KT P6SM FEW120



MET'MAP, your aeronautical weather chart ! - Copyright ORBIFLY December 2007 - Disclaimer

ORBIFLY MET'MAP TEAM :

Programming & Development : Alexandra Zaïnal
Concept & Development : Baudouin d'Aumeries
Co-Development & Prog : Marc-Olivier Méhu
Technical & hardware support : Manuel Goepfert

Contact : metmap@orbifly.com




SOURCES & CREDITS :

   NOAA       Earth
Advisory